Time;durP1;ratioP1;P1;durP2;ratioP2;P2;SDS_P1;SDS_P2;PMS_P1;PMS_P2;Temp;Humidity;BMP_temperature;BMP_pressure;BME280_temperature;BME280_humidity;BME280_pressure;Samples;Min_cycle;Max_cycle;Signal;HPM_P1;HPM_P2
2022/04/30 00:01:01;;;;;;;1999.90;999.90;;;15.10;55.50;;;;;;5014663;28;20041;-80
2022/04/30 00:03:28;;;;;;;1999.90;999.90;;;15.00;55.60;;;;;;5032954;28;20030;-80
2022/04/30 00:05:57;;;;;;;1999.90;999.90;;;15.00;55.80;;;;;;5006424;28;20032;-80
2022/04/30 00:08:23;;;;;;;1999.90;999.90;;;14.90;55.90;;;;;;5023314;28;20527;-80
2022/04/30 00:10:50;;;;;;;1999.90;999.90;;;14.80;55.90;;;;;;5022041;28;20033;-80
2022/04/30 00:13:16;;;;;;;1999.90;999.90;;;14.80;56.00;;;;;;5030961;28;20041;-80
2022/04/30 00:15:42;;;;;;;1999.90;999.90;;;14.70;55.90;;;;;;4992036;28;20403;-80
2022/04/30 00:18:11;;;;;;;1999.90;999.90;;;14.70;55.90;;;;;;5034353;28;20041;-80
2022/04/30 00:20:38;;;;;;;1999.90;999.90;;;14.70;56.60;;;;;;5033428;28;20045;-80
2022/04/30 00:23:05;;;;;;;1999.90;999.90;;;14.70;56.00;;;;;;5008601;28;20044;-80
2022/04/30 00:25:31;;;;;;;1999.90;999.90;;;14.70;55.90;;;;;;5030249;28;20029;-80
2022/04/30 00:27:57;;;;;;;1999.90;999.90;;;14.70;56.00;;;;;;5010479;28;20099;-80
2022/04/30 00:30:24;;;;;;;1999.90;999.90;;;14.60;55.90;;;;;;5021777;28;20049;-80
2022/04/30 00:32:51;;;;;;;1999.90;999.90;;;14.60;56.00;;;;;;5031039;28;20424;-80
2022/04/30 00:35:17;;;;;;;1999.90;999.90;;;14.60;56.10;;;;;;5024025;28;20571;-80
2022/04/30 00:37:43;;;;;;;1999.90;999.90;;;14.50;56.20;;;;;;5023542;28;20029;-80
2022/04/30 00:40:10;;;;;;;1999.90;999.90;;;14.40;56.20;;;;;;5025518;28;20130;-80
2022/04/30 00:42:36;;;;;;;1999.90;999.90;;;14.40;56.30;;;;;;5007301;28;20029;-80
2022/04/30 00:45:03;;;;;;;1999.90;999.90;;;14.30;56.30;;;;;;5025007;28;20561;-80
2022/04/30 00:47:30;;;;;;;1999.90;999.90;;;14.30;56.40;;;;;;5026622;28;20052;-80
2022/04/30 00:49:56;;;;;;;1999.90;999.90;;;14.20;56.30;;;;;;5018930;28;20081;-80
2022/04/30 00:52:25;;;;;;;1999.90;999.90;;;14.20;56.50;;;;;;5006604;28;20045;-80
2022/04/30 00:54:52;;;;;;;1999.90;999.90;;;14.20;56.50;;;;;;5018549;28;20399;-80
2022/04/30 00:57:22;;;;;;;1999.90;999.90;;;14.10;56.60;;;;;;5022451;28;20406;-80
2022/04/30 00:59:51;;;;;;;1999.90;999.90;;;14.10;56.70;;;;;;5010538;28;20025;-80
2022/04/30 01:02:17;;;;;;;1999.90;999.90;;;14.00;56.80;;;;;;5027688;28;20045;-80
2022/04/30 01:04:43;;;;;;;1999.90;999.90;;;13.90;56.80;;;;;;5040721;28;20463;-80
2022/04/30 01:07:09;;;;;;;1999.90;999.90;;;13.90;56.70;;;;;;5028499;28;20033;-80
2022/04/30 01:09:38;;;;;;;1999.90;999.90;;;13.90;56.80;;;;;;5006210;28;20044;-80
2022/04/30 01:12:08;;;;;;;1999.90;999.90;;;13.80;56.80;;;;;;4999822;28;20017;-80
2022/04/30 01:14:34;;;;;;;1999.90;999.90;;;13.80;56.90;;;;;;5028543;28;20040;-80
2022/04/30 01:17:05;;;;;;;1999.90;999.90;;;13.80;56.90;;;;;;5009624;28;20510;-80
2022/04/30 01:19:33;;;;;;;1999.90;999.90;;;13.70;57.00;;;;;;5020343;28;20041;-80
2022/04/30 01:22:01;;;;;;;1999.90;999.90;;;13.70;57.10;;;;;;5026925;28;20393;-80
2022/04/30 01:24:28;;;;;;;1999.90;999.90;;;13.60;57.20;;;;;;5023186;28;20026;-80
2022/04/30 01:26:59;;;;;;;1999.90;999.90;;;13.50;57.20;;;;;;5023882;28;20041;-80
2022/04/30 01:29:27;;;;;;;1999.90;999.90;;;13.50;57.30;;;;;;5026787;28;20093;-80
2022/04/30 01:37:27;;;;;;;1999.90;999.90;;;13.40;57.40;;;;;;5025617;28;20470;-80
2022/04/30 01:40:03;;;;;;;1999.90;999.90;;;13.30;57.40;;;;;;5030964;28;20037;-79
2022/04/30 01:42:43;;;;;;;1999.90;999.90;;;13.30;57.40;;;;;;5020110;28;20065;-80
2022/04/30 01:45:10;;;;;;;1999.90;999.90;;;13.30;57.40;;;;;;5024181;28;20034;-79
2022/04/30 01:47:41;;;;;;;1999.90;999.90;;;13.20;57.50;;;;;;5004106;28;20052;-80
2022/04/30 01:50:08;;;;;;;1999.90;999.90;;;13.20;57.50;;;;;;5018317;28;20415;-79
2022/04/30 01:52:34;;;;;;;1999.90;999.90;;;13.20;57.40;;;;;;5022070;28;20390;-79
2022/04/30 01:55:00;;;;;;;1999.90;999.90;;;13.20;57.50;;;;;;5028351;28;20033;-80
2022/04/30 01:57:27;;;;;;;1999.90;999.90;;;13.20;57.50;;;;;;5021693;28;20035;-79
2022/04/30 01:59:54;;;;;;;1999.90;999.90;;;13.10;57.60;;;;;;5032458;28;20387;-79
2022/04/30 02:02:23;;;;;;;1999.90;999.90;;;13.10;57.70;;;;;;5020982;28;20045;-80
2022/04/30 02:04:54;;;;;;;1999.90;999.90;;;13.00;57.70;;;;;;5003673;28;20046;-80
2022/04/30 02:07:20;;;;;;;1999.90;999.90;;;13.00;57.70;;;;;;5016518;28;20037;-80
2022/04/30 02:09:47;;;;;;;1999.90;999.90;;;13.00;57.70;;;;;;5025909;28;20041;-80
2022/04/30 02:12:13;;;;;;;1999.90;999.90;;;12.90;57.80;;;;;;5025419;28;20038;-80
2022/04/30 02:14:40;;;;;;;1999.90;999.90;;;12.80;57.90;;;;;;5007213;28;20052;-79
2022/04/30 02:17:06;;;;;;;1999.90;999.90;;;12.80;58.20;;;;;;5019623;28;20049;-79
2022/04/30 02:20:18;;;;;;;1999.90;999.90;;;12.70;58.30;;;;;;5001256;28;20021;-80
2022/04/30 02:22:19;;;;;;;1999.90;999.90;;;12.60;58.40;;;;;;5024711;28;20045;-80
2022/04/30 02:24:45;;;;;;;1999.90;999.90;;;12.50;58.60;;;;;;5022672;28;20032;-79
2022/04/30 02:27:12;;;;;;;1999.90;999.90;;;12.50;58.70;;;;;;5044302;28;20025;-79
2022/04/30 02:29:38;;;;;;;1999.90;999.90;;;12.40;58.60;;;;;;5029971;28;20026;-79
2022/04/30 02:32:05;;;;;;;1999.90;999.90;;;12.40;58.60;;;;;;5030216;28;20494;-79
2022/04/30 02:34:31;;;;;;;1999.90;999.90;;;12.40;58.60;;;;;;5024397;28;20033;-80
2022/04/30 02:36:57;;;;;;;1999.90;999.90;;;12.40;58.60;;;;;;5021484;28;20017;-79
2022/04/30 02:39:23;;;;;;;1999.90;999.90;;;12.40;58.60;;;;;;5029201;28;20029;-79
2022/04/30 02:41:49;;;;;;;1999.90;999.90;;;12.40;58.70;;;;;;5029248;28;20041;-80
2022/04/30 02:44:17;;;;;;;1999.90;999.90;;;12.40;58.60;;;;;;5024491;28;20025;-80
2022/04/30 02:46:43;;;;;;;1999.90;999.90;;;12.40;58.50;;;;;;5030369;28;20041;-79
2022/04/30 02:49:09;;;;;;;1999.90;999.90;;;12.40;58.50;;;;;;5036101;28;20485;-80
2022/04/30 02:51:35;;;;;;;1999.90;999.90;;;12.40;58.50;;;;;;5031657;28;20042;-80
2022/04/30 02:54:01;;;;;;;1999.90;999.90;;;12.40;58.70;;;;;;5029424;28;20029;-79
2022/04/30 02:56:28;;;;;;;1999.90;999.90;;;12.30;58.80;;;;;;5029769;28;20128;-79
2022/04/30 03:01:39;;;;;;;1999.90;999.90;;;12.20;58.70;;;;;;5026737;28;20507;-79
2022/04/30 03:04:05;;;;;;;1999.90;999.90;;;12.20;58.80;;;;;;5023448;28;20041;-80
2022/04/30 03:06:32;;;;;;;1999.90;999.90;;;12.20;58.80;;;;;;5022984;28;20040;-79
2022/04/30 03:08:59;;;;;;;1999.90;999.90;;;12.20;58.90;;;;;;5005190;28;20029;-79
2022/04/30 03:11:25;;;;;;;1999.90;999.90;;;12.10;59.30;;;;;;4997552;28;20041;-80
2022/04/30 03:13:51;;;;;;;1999.90;999.90;;;12.10;59.00;;;;;;5020187;28;20094;-79
2022/04/30 03:21:46;;;;;;;1999.90;999.90;;;12.00;58.90;;;;;;5025514;28;20045;-79
2022/04/30 03:24:17;;;;;;;1999.90;999.90;;;12.00;59.10;;;;;;5023286;28;20046;-79
2022/04/30 03:26:45;;;;;;;1999.90;999.90;;;12.00;59.30;;;;;;5033523;28;20052;-79
2022/04/30 03:29:11;;;;;;;1999.90;999.90;;;11.90;59.40;;;;;;5011462;28;20025;-79
2022/04/30 03:31:40;;;;;;;1999.90;999.90;;;11.80;59.40;;;;;;5028747;28;20034;-79
2022/04/30 03:34:15;;;;;;;1999.90;999.90;;;11.80;59.40;;;;;;5032616;28;20036;-79
2022/04/30 03:36:42;;;;;;;1999.90;999.90;;;11.80;59.50;;;;;;5010649;28;20029;-79
2022/04/30 03:39:09;;;;;;;1999.90;999.90;;;11.80;59.60;;;;;;5028403;28;20044;-80
2022/04/30 03:41:35;;;;;;;1999.90;999.90;;;11.70;59.50;;;;;;5044900;28;20049;-79
2022/04/30 03:44:02;;;;;;;1999.90;999.90;;;11.70;59.60;;;;;;4991351;28;20045;-79
2022/04/30 03:46:28;;;;;;;1999.90;999.90;;;11.60;59.80;;;;;;5030916;28;20045;-79
2022/04/30 03:48:56;;;;;;;1999.90;999.90;;;11.60;59.90;;;;;;5029865;28;20028;-80
2022/04/30 03:51:23;;;;;;;1999.90;999.90;;;11.50;60.00;;;;;;5026968;28;20471;-80
2022/04/30 03:53:49;;;;;;;1999.90;999.90;;;11.50;60.10;;;;;;5030626;28;20044;-80
2022/04/30 03:56:19;;;;;;;1999.90;999.90;;;11.50;60.10;;;;;;5036360;28;20032;-80
2022/04/30 03:58:47;;;;;;;1999.90;999.90;;;11.50;60.10;;;;;;5028478;28;20471;-80
2022/04/30 04:01:18;;;;;;;1999.90;999.90;;;11.50;60.30;;;;;;5028370;28;20045;-80
2022/04/30 04:03:44;;;;;;;;;;;11.40;60.30;;;;;;5026893;28;20044;-79
2022/04/30 04:06:10;;;;;;;1999.90;999.90;;;11.40;60.40;;;;;;5028378;28;20311;-80
2022/04/30 04:08:36;;;;;;;1999.90;999.90;;;11.40;60.40;;;;;;5004827;28;20029;-80
2022/04/30 04:11:02;;;;;;;1999.90;999.90;;;11.40;60.50;;;;;;5029133;28;20034;-80
2022/04/30 04:18:58;;;;;;;1999.90;999.90;;;11.30;60.60;;;;;;5031629;28;20030;-80
2022/04/30 04:21:24;;;;;;;1999.90;999.90;;;11.30;60.60;;;;;;5018249;28;20048;-79
2022/04/30 04:26:35;;;;;;;1999.90;999.90;;;11.30;60.60;;;;;;5041076;28;20064;-79
2022/04/30 04:29:01;;;;;;;1999.90;999.90;;;11.30;60.60;;;;;;5028634;28;20044;-79
2022/04/30 04:31:27;;;;;;;1999.90;999.90;;;11.30;60.60;;;;;;5023848;28;20034;-79
2022/04/30 04:33:53;;;;;;;1999.90;999.90;;;11.30;60.60;;;;;;5025655;28;20404;-80
2022/04/30 04:36:19;;;;;;;1999.90;999.90;;;11.20;60.60;;;;;;5004743;28;20029;-80
2022/04/30 04:38:45;;;;;;;1999.90;999.90;;;11.20;60.50;;;;;;5027537;28;20034;-79
2022/04/30 04:41:12;;;;;;;1999.90;999.90;;;11.30;61.30;;;;;;5026099;28;20033;-79
2022/04/30 04:43:38;;;;;;;1999.90;999.90;;;11.30;60.50;;;;;;5031012;28;20037;-79
2022/04/30 04:46:04;;;;;;;1999.90;999.90;;;11.30;60.70;;;;;;5024563;28;20040;-80
2022/04/30 04:48:32;;;;;;;1999.90;999.90;;;11.20;60.90;;;;;;5033588;28;20034;-79
2022/04/30 04:50:58;;;;;;;1999.90;999.90;;;11.10;60.90;;;;;;5012016;28;20033;-79
2022/04/30 04:53:24;;;;;;;1999.90;999.90;;;11.10;61.00;;;;;;5031345;28;20033;-79
2022/04/30 04:55:50;;;;;;;1999.90;999.90;;;11.10;61.10;;;;;;5033935;28;20390;-79
2022/04/30 04:58:16;;;;;;;1999.90;999.90;;;11.00;61.10;;;;;;5028109;28;20549;-80
2022/04/30 05:00:42;;;;;;;1999.90;999.90;;;11.10;61.10;;;;;;5027412;28;20030;-80
2022/04/30 05:03:09;;;;;;;1999.90;999.90;;;11.10;61.20;;;;;;5007920;28;20037;-80
2022/04/30 05:05:35;;;;;;;1999.90;999.90;;;11.10;61.10;;;;;;5044240;28;20037;-80
2022/04/30 05:08:02;;;;;;;1999.90;999.90;;;11.10;61.10;;;;;;5022034;28;20516;-80
2022/04/30 05:10:28;;;;;;;1999.90;999.90;;;11.10;61.10;;;;;;5017342;28;20025;-80
2022/04/30 05:12:54;;;;;;;1999.90;999.90;;;11.10;61.20;;;;;;5023380;28;20040;-80
2022/04/30 05:15:20;;;;;;;1999.90;999.90;;;11.00;61.30;;;;;;5026532;28;20041;-80
2022/04/30 05:17:46;;;;;;;1999.90;999.90;;;11.00;61.30;;;;;;5043367;28;20029;-80
2022/04/30 05:20:12;;;;;;;1999.90;999.90;;;11.00;62.10;;;;;;5025627;28;20060;-80
2022/04/30 05:22:38;;;;;;;1999.90;999.90;;;11.00;62.20;;;;;;5031591;28;20402;-80
2022/04/30 05:25:05;;;;;;;1999.90;999.90;;;11.00;61.40;;;;;;5032384;28;20370;-80
2022/04/30 05:27:31;;;;;;;1999.90;999.90;;;11.00;61.40;;;;;;5028403;28;20052;-80
2022/04/30 05:29:57;;;;;;;1999.90;999.90;;;11.00;61.40;;;;;;5031688;28;20406;-80
2022/04/30 05:32:23;;;;;;;1999.90;999.90;;;11.00;61.30;;;;;;5009307;28;20033;-80
2022/04/30 05:34:50;;;;;;;1999.90;999.90;;;11.00;61.30;;;;;;5033430;28;20041;-80
2022/04/30 05:37:16;;;;;;;1999.90;999.90;;;11.00;61.30;;;;;;5035691;28;20025;-80
2022/04/30 05:39:42;;;;;;;1999.90;999.90;;;11.00;61.30;;;;;;5028871;28;20044;-80
2022/04/30 05:42:08;;;;;;;1999.90;999.90;;;11.10;61.30;;;;;;5022980;28;20485;-80
2022/04/30 05:44:35;;;;;;;1999.90;999.90;;;11.10;61.30;;;;;;5032640;28;20064;-80
2022/04/30 05:47:01;;;;;;;1999.90;999.90;;;11.20;61.50;;;;;;5029295;28;20049;-80
2022/04/30 05:49:27;;;;;;;1999.90;999.90;;;11.20;61.40;;;;;;5028535;28;20043;-80
2022/04/30 05:51:53;;;;;;;1999.90;999.90;;;11.30;62.00;;;;;;5025361;28;20033;-80
2022/04/30 05:54:19;;;;;;;1999.90;999.90;;;11.40;61.10;;;;;;5026343;28;20216;-86
2022/04/30 05:56:45;;;;;;;1999.90;999.90;;;11.50;60.90;;;;;;5004563;28;20056;-85
2022/04/30 05:59:12;;;;;;;1999.90;999.90;;;11.60;61.00;;;;;;5030715;28;20041;-81
2022/04/30 06:01:38;;;;;;;1999.90;999.90;;;11.70;61.00;;;;;;5033620;28;20425;-84
2022/04/30 06:04:04;;;;;;;1999.90;999.90;;;11.90;61.00;;;;;;5025053;28;20060;-82
2022/04/30 06:06:30;;;;;;;1999.90;999.90;;;12.20;60.80;;;;;;5022861;28;21209;-83
2022/04/30 06:08:56;;;;;;;1999.90;999.90;;;12.30;60.60;;;;;;5012501;28;20025;-84
2022/04/30 06:11:22;;;;;;;1999.90;999.90;;;12.30;60.30;;;;;;5007396;28;20049;-83
2022/04/30 06:13:48;;;;;;;1999.90;999.90;;;12.30;60.30;;;;;;5030802;28;20036;-84
2022/04/30 06:16:15;;;;;;;1999.90;999.90;;;12.30;60.40;;;;;;5024145;28;20070;-84
2022/04/30 06:18:41;;;;;;;1999.90;999.90;;;12.30;60.40;;;;;;5030340;28;20033;-84
2022/04/30 06:21:09;;;;;;;1999.90;999.90;;;12.30;60.40;;;;;;5023482;28;20053;-84
2022/04/30 06:23:35;;;;;;;1999.90;999.90;;;12.20;60.60;;;;;;5014948;28;20096;-81
2022/04/30 06:26:01;;;;;;;1999.90;999.90;;;12.10;60.80;;;;;;5027888;28;20471;-80
2022/04/30 06:28:27;;;;;;;1999.90;999.90;;;12.10;61.00;;;;;;5021818;28;20038;-84
2022/04/30 06:30:53;;;;;;;1999.90;999.90;;;12.00;61.10;;;;;;5022156;28;20033;-84
2022/04/30 06:33:19;;;;;;;1999.90;999.90;;;12.10;61.10;;;;;;5026465;28;20034;-82
2022/04/30 06:35:45;;;;;;;1999.90;999.90;;;12.10;61.00;;;;;;5031859;28;20052;-86
2022/04/30 06:38:11;;;;;;;1999.90;999.90;;;12.20;61.00;;;;;;5029802;28;20112;-84
2022/04/30 06:40:37;;;;;;;1999.90;999.90;;;12.20;61.00;;;;;;5025405;28;20037;-84
2022/04/30 06:43:04;;;;;;;1999.90;999.90;;;12.30;60.80;;;;;;5025110;28;20052;-84
2022/04/30 06:45:30;;;;;;;1999.90;999.90;;;12.40;60.70;;;;;;5041081;28;20046;-80
2022/04/30 06:47:56;;;;;;;1999.90;999.90;;;12.40;60.50;;;;;;5026357;28;20033;-81
2022/04/30 06:50:22;;;;;;;1999.90;999.90;;;12.40;60.60;;;;;;5030897;28;20048;-83
2022/04/30 06:58:17;;;;;;;1999.90;999.90;;;12.70;60.10;;;;;;5032842;28;20033;-81
2022/04/30 07:03:27;;;;;;;1999.90;999.90;;;12.70;60.30;;;;;;5030884;28;20045;-81
2022/04/30 07:06:03;;;;;;;1999.90;999.90;;;12.60;60.20;;;;;;5040289;28;20371;-78
2022/04/30 07:08:33;;;;;;;1999.90;999.90;;;12.60;60.10;;;;;;5030791;28;20045;-81
2022/04/30 07:11:00;;;;;;;1999.90;999.90;;;12.80;60.10;;;;;;5015524;28;20057;-81
2022/04/30 07:13:26;;;;;;;1999.90;999.90;;;12.90;59.80;;;;;;5015158;28;20038;-82
2022/04/30 07:15:52;;;;;;;1999.90;999.90;;;13.00;60.30;;;;;;5011623;28;20042;-82
2022/04/30 07:18:18;;;;;;;1999.90;999.90;;;13.10;59.50;;;;;;5013857;28;20041;-83
2022/04/30 07:20:44;;;;;;;1999.90;999.90;;;13.30;59.40;;;;;;4998841;28;20032;-83
2022/04/30 07:23:11;;;;;;;1999.90;999.90;;;13.50;59.10;;;;;;5028657;28;20037;-82
2022/04/30 07:25:37;;;;;;;1999.90;999.90;;;13.80;58.80;;;;;;5032900;28;20022;-80
2022/04/30 07:28:03;;;;;;;1999.90;999.90;;;14.00;58.50;;;;;;5033021;28;20036;-78
2022/04/30 07:30:29;;;;;;;1999.90;999.90;;;13.90;58.30;;;;;;5029373;28;20398;-79
2022/04/30 07:32:55;;;;;;;1999.90;999.90;;;13.90;58.40;;;;;;5021863;28;20038;-78
2022/04/30 07:35:21;;;;;;;1999.90;999.90;;;13.80;58.40;;;;;;5009607;28;20049;-78
2022/04/30 07:37:47;;;;;;;1999.90;999.90;;;13.90;58.40;;;;;;5029025;28;20030;-78
2022/04/30 07:40:14;;;;;;;1999.90;999.90;;;13.90;58.30;;;;;;5029156;28;20500;-78
2022/04/30 07:42:40;;;;;;;1999.90;999.90;;;14.00;58.20;;;;;;5044379;28;20403;-78
2022/04/30 07:45:06;;;;;;;1999.90;999.90;;;14.10;58.20;;;;;;5031523;28;20026;-78
2022/04/30 07:47:32;;;;;;;1999.90;999.90;;;14.20;57.80;;;;;;5029815;28;20463;-78
2022/04/30 07:49:58;;;;;;;1999.90;999.90;;;14.40;57.70;;;;;;5030120;28;20025;-86
2022/04/30 07:52:25;;;;;;;1999.90;999.90;;;14.60;57.40;;;;;;5026361;28;20394;-85
2022/04/30 07:54:51;;;;;;;1999.90;999.90;;;14.60;57.20;;;;;;5019285;28;20029;-81
2022/04/30 07:57:17;;;;;;;1999.90;999.90;;;14.70;57.10;;;;;;5021808;28;20065;-85
2022/04/30 07:59:46;;;;;;;1999.90;999.90;;;14.80;57.00;;;;;;5028395;28;20034;-86
2022/04/30 08:02:12;;;;;;;1999.90;999.90;;;15.00;56.80;;;;;;5011275;28;20065;-84
2022/04/30 08:04:39;;;;;;;1999.90;999.90;;;15.10;56.50;;;;;;5033218;28;20021;-82
2022/04/30 08:07:05;;;;;;;1999.90;999.90;;;15.30;56.40;;;;;;5033307;28;20049;-82
2022/04/30 08:09:31;;;;;;;1999.90;999.90;;;15.40;56.20;;;;;;5021383;28;20038;-86
2022/04/30 08:11:57;;;;;;;1999.90;999.90;;;15.40;56.10;;;;;;5027543;28;20394;-85
2022/04/30 08:14:24;;;;;;;1999.90;999.90;;;15.50;55.80;;;;;;5009124;28;20041;-87
2022/04/30 08:16:50;;;;;;;1999.90;999.90;;;15.60;55.80;;;;;;5028581;28;20045;-78
2022/04/30 08:19:16;;;;;;;1999.90;999.90;;;15.80;55.50;;;;;;5028544;28;20474;-81
2022/04/30 08:21:43;;;;;;;1999.90;999.90;;;15.80;55.20;;;;;;5030719;28;20044;-79
2022/04/30 08:24:09;;;;;;;1999.90;999.90;;;15.80;55.00;;;;;;5029686;28;20491;-86
2022/04/30 08:26:36;;;;;;;1999.90;999.90;;;15.80;54.80;;;;;;5029548;28;20041;-82
2022/04/30 08:29:02;;;;;;;1999.90;999.90;;;15.80;54.80;;;;;;5016381;28;20453;-84
2022/04/30 08:31:28;;;;;;;1999.90;999.90;;;15.80;54.80;;;;;;5030408;28;20495;-82
2022/04/30 08:33:54;;;;;;;1999.90;999.90;;;15.90;54.60;;;;;;5022919;28;20466;-86
2022/04/30 08:36:20;;;;;;;1999.90;999.90;;;16.00;54.60;;;;;;5000853;28;20561;-82
2022/04/30 08:38:46;;;;;;;1999.90;999.90;;;16.20;54.50;;;;;;5029342;28;20497;-80
2022/04/30 08:41:13;;;;;;;1999.90;999.90;;;16.40;54.20;;;;;;5027919;28;20029;-80
2022/04/30 08:43:40;;;;;;;1999.90;999.90;;;16.40;53.80;;;;;;5029739;28;20509;-79
2022/04/30 08:46:06;;;;;;;1999.90;999.90;;;16.50;53.80;;;;;;5031011;28;20032;-79
2022/04/30 08:48:32;;;;;;;1999.90;999.90;;;16.50;53.60;;;;;;5027169;28;20038;-80
2022/04/30 08:50:58;;;;;;;1999.90;999.90;;;16.60;53.60;;;;;;5026716;28;20026;-80
2022/04/30 08:53:24;;;;;;;1999.90;999.90;;;16.80;53.40;;;;;;5026069;28;20112;-81
2022/04/30 08:55:50;;;;;;;1999.90;999.90;;;17.00;53.10;;;;;;5030866;28;20040;-81
2022/04/30 08:58:17;;;;;;;1999.90;999.90;;;17.00;52.80;;;;;;5025309;28;20041;-81
2022/04/30 09:00:44;;;;;;;1999.90;999.90;;;17.10;52.80;;;;;;4991501;28;20052;-85
2022/04/30 09:03:18;;;;;;;1999.90;999.90;;;17.20;52.80;;;;;;5008634;28;20439;-88
2022/04/30 09:05:45;;;;;;;1999.90;999.90;;;17.30;52.60;;;;;;5026041;28;20430;-83
2022/04/30 09:08:11;;;;;;;1999.90;999.90;;;17.40;52.40;;;;;;5022531;28;20374;-84
2022/04/30 09:10:41;;;;;;;1999.90;999.90;;;17.50;52.30;;;;;;5001455;28;20037;-83
2022/04/30 09:13:12;;;;;;;1999.90;999.90;;;17.60;52.20;;;;;;5022347;28;20490;-84
2022/04/30 09:15:38;;;;;;;1999.90;999.90;;;17.70;52.00;;;;;;5023159;28;20038;-82
2022/04/30 09:18:05;;;;;;;1999.90;999.90;;;17.70;51.80;;;;;;4982709;28;20046;-84
2022/04/30 09:20:50;;;;;;;1999.90;999.90;;;17.80;51.80;;;;;;5012721;28;20720;-83
2022/04/30 09:23:27;;;;;;;1999.90;999.90;;;17.80;51.60;;;;;;4993660;28;20053;-84
2022/04/30 09:25:57;;;;;;;1999.90;999.90;;;17.90;51.50;;;;;;5035568;28;20032;-84
2022/04/30 09:28:30;;;;;;;1999.90;999.90;;;17.80;51.60;;;;;;5024137;28;20030;-86
2022/04/30 09:31:07;;;;;;;1999.90;999.90;;;17.70;51.70;;;;;;5021237;28;20032;-89
2022/04/30 09:33:35;;;;;;;1999.90;999.90;;;17.80;51.70;;;;;;5017231;28;20029;-82
2022/04/30 09:38:50;;;;;;;1999.90;999.90;;;18.00;51.20;;;;;;5030244;28;20041;-87
2022/04/30 09:41:21;;;;;;;1999.90;999.90;;;18.00;51.00;;;;;;5028090;28;20029;-84
2022/04/30 09:43:57;;;;;;;1999.90;999.90;;;18.00;51.00;;;;;;5032812;28;20037;-84
2022/04/30 09:46:23;;;;;;;1999.90;999.90;;;18.00;50.90;;;;;;5005702;28;20629;-86
2022/04/30 09:54:19;;;;;;;1999.90;999.90;;;18.20;50.70;;;;;;5024916;28;20030;-84
2022/04/30 09:56:45;;;;;;;1999.90;999.90;;;18.40;50.40;;;;;;5029280;28;20044;-84
2022/04/30 09:59:13;;;;;;;1999.90;999.90;;;18.50;50.20;;;;;;5008682;28;20418;-81
2022/04/30 10:01:40;;;;;;;1999.90;999.90;;;18.50;50.00;;;;;;5018969;28;20037;-84
2022/04/30 10:04:08;;;;;;;1999.90;999.90;;;18.60;50.00;;;;;;5023523;28;20033;-90
2022/04/30 10:06:41;;;;;;;1999.90;999.90;;;18.60;49.80;;;;;;5018362;28;20026;-80
2022/04/30 10:09:08;;;;;;;1999.90;999.90;;;18.60;49.80;;;;;;5025414;28;20385;-81
2022/04/30 10:11:52;;;;;;;1999.90;999.90;;;18.70;49.70;;;;;;5022582;28;20033;-88
2022/04/30 10:14:38;;;;;;;1999.90;999.90;;;18.80;49.50;;;;;;5022912;28;20034;-86
2022/04/30 10:17:48;;;;;;;1999.90;999.90;;;19.10;49.50;;;;;;5012074;28;20046;-86
2022/04/30 10:20:07;;;;;;;1999.90;999.90;;;19.30;49.10;;;;;;5011753;28;20065;-85
2022/04/30 10:22:33;;;;;;;1999.90;999.90;;;19.40;49.00;;;;;;5020318;28;20045;-90
2022/04/30 10:24:59;;;;;;;1999.90;999.90;;;19.40;49.00;;;;;;5018866;28;20572;-87
2022/04/30 10:27:39;;;;;;;1999.90;999.90;;;19.40;49.00;;;;;;5013257;28;20046;-86
2022/04/30 10:30:10;;;;;;;1999.90;999.90;;;19.60;49.00;;;;;;5007143;28;20032;-87
2022/04/30 10:32:39;;;;;;;1999.90;999.90;;;19.70;48.80;;;;;;5026621;28;20394;-83
2022/04/30 10:35:05;;;;;;;1999.90;999.90;;;19.80;48.70;;;;;;5033276;28;20041;-83
2022/04/30 10:37:35;;;;;;;1999.90;999.90;;;19.90;48.60;;;;;;5038797;28;20048;-83
2022/04/30 10:40:04;;;;;;;1999.90;999.90;;;19.90;48.50;;;;;;5030197;28;20040;-83
2022/04/30 10:42:31;;;;;;;1999.90;999.90;;;19.90;48.30;;;;;;5042335;28;20394;-83
2022/04/30 10:44:58;;;;;;;1999.90;999.90;;;19.90;48.30;;;;;;5034303;28;20041;-83
2022/04/30 10:47:24;;;;;;;1999.90;999.90;;;19.90;48.40;;;;;;5030557;28;20038;-82
2022/04/30 10:49:50;;;;;;;1999.90;999.90;;;19.90;48.40;;;;;;5016298;28;20490;-83
2022/04/30 10:52:24;;;;;;;1999.90;999.90;;;20.00;48.20;;;;;;5027519;28;20369;-83
2022/04/30 10:54:51;;;;;;;1999.90;999.90;;;20.00;48.00;;;;;;5027349;28;20024;-83
2022/04/30 10:57:17;;;;;;;1999.90;999.90;;;20.10;48.10;;;;;;5028656;28;20056;-84
2022/04/30 10:59:43;;;;;;;1999.90;999.90;;;20.10;48.50;;;;;;5027623;28;20041;-83
2022/04/30 11:02:13;;;;;;;1999.90;999.90;;;20.00;47.90;;;;;;5026936;28;20033;-83
2022/04/30 11:04:42;;;;;;;1999.90;999.90;;;19.90;48.00;;;;;;5026928;28;20040;-83
2022/04/30 11:07:08;;;;;;;1999.90;999.90;;;20.00;48.00;;;;;;5021671;28;20037;-83
2022/04/30 11:09:43;;;;;;;1999.90;999.90;;;20.00;47.90;;;;;;5009600;28;20439;-83
2022/04/30 11:12:14;;;;;;;1999.90;999.90;;;20.20;47.80;;;;;;5020168;28;20025;-83
2022/04/30 11:14:42;;;;;;;1999.90;999.90;;;20.50;47.40;;;;;;5028090;28;20026;-83
2022/04/30 11:17:08;;;;;;;1999.90;999.90;;;20.50;47.30;;;;;;5010487;28;20502;-83
2022/04/30 11:19:39;;;;;;;1999.90;999.90;;;20.60;47.30;;;;;;5009296;28;20029;-84
2022/04/30 11:22:07;;;;;;;1999.90;999.90;;;20.70;47.10;;;;;;5012014;28;20029;-83
2022/04/30 11:24:33;;;;;;;1999.90;999.90;;;20.60;46.90;;;;;;5040639;28;20041;-83
2022/04/30 11:27:03;;;;;;;1999.90;999.90;;;20.60;47.10;;;;;;5025357;28;20025;-83
2022/04/30 11:29:29;;;;;;;1999.90;999.90;;;20.50;47.30;;;;;;5029406;28;20406;-83
2022/04/30 11:31:55;;;;;;;1999.90;999.90;;;20.60;47.20;;;;;;5019230;28;20030;-83
2022/04/30 11:34:22;;;;;;;1999.90;999.90;;;20.60;47.10;;;;;;5013203;28;20470;-83
2022/04/30 11:36:49;;;;;;;1999.90;999.90;;;20.40;47.00;;;;;;5025943;28;20029;-84
2022/04/30 11:39:15;;;;;;;1999.90;999.90;;;20.30;47.20;;;;;;5042779;28;20029;-84
2022/04/30 11:41:46;;;;;;;1999.90;999.90;;;20.20;47.30;;;;;;5028903;28;20026;-83
2022/04/30 11:44:12;;;;;;;1999.90;999.90;;;20.30;47.30;;;;;;5026893;28;20042;-84
2022/04/30 11:46:39;;;;;;;1999.90;999.90;;;20.40;47.20;;;;;;5018962;28;20030;-84
2022/04/30 11:49:16;;;;;;;1999.90;999.90;;;20.50;47.00;;;;;;5028971;28;20033;-83
2022/04/30 11:51:42;;;;;;;1999.90;999.90;;;20.60;46.70;;;;;;5029502;28;20025;-84
2022/04/30 11:54:09;;;;;;;1999.90;999.90;;;20.60;46.70;;;;;;5032372;28;20524;-83
2022/04/30 11:56:36;;;;;;;1999.90;999.90;;;20.60;46.70;;;;;;5032505;28;20028;-84
2022/04/30 11:59:02;;;;;;;1999.90;999.90;;;20.50;46.70;;;;;;5030415;28;20029;-84
2022/04/30 12:01:35;;;;;;;1999.90;999.90;;;20.40;46.80;;;;;;5023288;28;20053;-84
2022/04/30 12:04:08;;;;;;;1999.90;999.90;;;20.30;46.80;;;;;;5029924;28;20045;-84
2022/04/30 12:06:34;;;;;;;1999.90;999.90;;;20.30;46.80;;;;;;5013433;28;20022;-84
2022/04/30 12:09:00;;;;;;;1999.90;999.90;;;20.30;46.80;;;;;;5045306;28;20032;-85
2022/04/30 12:11:26;;;;;;;1999.90;999.90;;;20.50;46.60;;;;;;5026591;28;20033;-84
2022/04/30 12:14:03;;;;;;;1999.90;999.90;;;20.60;46.30;;;;;;4992282;28;20451;-85
2022/04/30 12:16:39;;;;;;;1999.90;999.90;;;20.60;46.10;;;;;;5029020;28;20064;-84
2022/04/30 12:24:43;;;;;;;1999.90;999.90;;;20.90;45.70;;;;;;5017543;28;20049;-85
2022/04/30 12:27:10;;;;;;;1999.90;999.90;;;21.10;45.50;;;;;;5044953;28;20021;-84
2022/04/30 12:29:37;;;;;;;1999.90;999.90;;;21.10;45.20;;;;;;5015813;28;20052;-85
2022/04/30 12:32:04;;;;;;;1999.90;999.90;;;21.10;45.10;;;;;;5027769;28;20045;-85
2022/04/30 12:34:39;;;;;;;1999.90;999.90;;;21.10;45.00;;;;;;5029781;28;20513;-85
2022/04/30 12:37:06;;;;;;;1999.90;999.90;;;21.10;44.90;;;;;;5012779;28;20039;-84
2022/04/30 12:39:32;;;;;;;1999.90;999.90;;;21.20;44.90;;;;;;5026919;28;20025;-84
2022/04/30 12:41:59;;;;;;;1999.90;999.90;;;21.20;45.00;;;;;;5027868;28;20060;-85
2022/04/30 12:44:25;;;;;;;1999.90;999.90;;;21.20;44.80;;;;;;5030078;28;20357;-84